createdAt,value
2022-09-16T00:08:20.566Z,11.15
2022-09-16T00:20:20.526Z,11.13
2022-09-16T00:32:20.542Z,11.11
2022-09-16T00:44:20.514Z,11.10
2022-09-16T00:56:21.289Z,11.08
2022-09-16T01:08:20.531Z,11.06
2022-09-16T01:20:20.549Z,11.06
2022-09-16T01:32:20.517Z,11.05
2022-09-16T01:44:20.536Z,11.04
2022-09-16T01:56:20.523Z,11.03
2022-09-16T02:08:20.559Z,11.01
2022-09-16T02:20:20.578Z,11.01
2022-09-16T02:32:20.495Z,11.00
2022-09-16T02:44:20.552Z,11.00
2022-09-16T02:56:20.540Z,10.99
2022-09-16T03:08:20.559Z,10.98
2022-09-16T03:20:20.530Z,10.98
2022-09-16T03:32:20.546Z,10.96
2022-09-16T03:44:20.580Z,10.96
2022-09-16T03:56:20.580Z,10.95
2022-09-16T04:08:20.581Z,10.95
2022-09-16T04:20:20.619Z,10.94
2022-09-16T04:32:20.600Z,10.94
2022-09-16T04:44:20.570Z,10.93
2022-09-16T04:56:20.527Z,10.92
2022-09-16T05:08:20.553Z,10.92
2022-09-16T05:20:20.543Z,10.91
2022-09-16T05:32:20.506Z,10.91
2022-09-16T05:44:20.549Z,10.90
2022-09-16T05:56:20.526Z,10.90
2022-09-16T06:08:21.510Z,10.90
2022-09-16T06:20:20.519Z,10.89
2022-09-16T06:32:20.514Z,10.90
2022-09-16T06:44:20.550Z,10.92
2022-09-16T06:56:20.542Z,10.90
2022-09-16T07:08:20.552Z,10.90
2022-09-16T07:20:20.530Z,10.90
2022-09-16T07:32:20.526Z,10.94
2022-09-16T07:44:20.598Z,10.99
2022-09-16T07:56:20.515Z,11.21
2022-09-16T08:08:20.503Z,11.10
2022-09-16T08:20:21.168Z,11.09
2022-09-16T08:32:20.538Z,11.11
2022-09-16T08:44:20.490Z,11.10
2022-09-16T08:56:20.548Z,11.10
2022-09-16T09:08:20.531Z,11.18
2022-09-16T09:20:20.544Z,11.20
2022-09-16T09:32:20.540Z,11.18
2022-09-16T09:44:20.531Z,11.22
2022-09-16T09:56:20.543Z,11.21
2022-09-16T10:08:20.553Z,11.24
2022-09-16T10:20:20.537Z,11.26
2022-09-16T10:32:20.535Z,11.29
2022-09-16T10:44:20.532Z,11.68
2022-09-16T10:56:20.533Z,11.55
2022-09-16T11:08:20.539Z,11.56
2022-09-16T11:20:20.529Z,11.54
2022-09-16T11:32:20.518Z,11.60
2022-09-16T11:44:20.531Z,11.62
2022-09-16T11:56:20.562Z,12.00
2022-09-16T12:08:20.542Z,12.17
2022-09-16T12:20:20.544Z,12.36
2022-09-16T12:32:20.537Z,12.62
2022-09-16T12:44:33.615Z,12.54
2022-09-16T12:56:20.542Z,12.68
2022-09-16T13:08:20.821Z,12.70
2022-09-16T13:20:20.533Z,12.71
2022-09-16T13:32:20.534Z,12.73
2022-09-16T13:44:20.520Z,12.67
2022-09-16T13:56:20.533Z,12.62
2022-09-16T14:08:20.543Z,12.62
2022-09-16T14:20:20.555Z,12.59
2022-09-16T14:32:20.502Z,12.61
2022-09-16T14:44:20.620Z,12.62
2022-09-16T14:56:20.652Z,12.69
2022-09-16T15:08:20.551Z,12.70
2022-09-16T15:20:20.537Z,12.70
2022-09-16T15:32:20.551Z,12.66
2022-09-16T15:44:20.548Z,12.64
2022-09-16T15:56:20.490Z,12.61
2022-09-16T16:08:20.555Z,12.60
2022-09-16T16:20:20.546Z,12.60
2022-09-16T16:32:20.529Z,12.60
2022-09-16T16:44:20.537Z,12.60
2022-09-16T16:56:20.550Z,12.57
2022-09-16T17:08:20.554Z,12.55
2022-09-16T17:20:20.528Z,12.53
2022-09-16T17:32:20.519Z,12.51
2022-09-16T17:44:20.542Z,12.49
2022-09-16T17:56:20.523Z,12.46
2022-09-16T18:08:20.541Z,12.44
2022-09-16T18:20:20.527Z,12.44
2022-09-16T18:32:20.529Z,12.41
2022-09-16T18:44:20.589Z,12.40
2022-09-16T18:56:20.519Z,12.38
2022-09-16T19:08:20.548Z,12.36
2022-09-16T19:20:20.548Z,12.35
2022-09-16T19:32:20.579Z,12.32
2022-09-16T19:44:20.550Z,12.32
2022-09-16T19:56:20.526Z,12.30
2022-09-16T20:08:20.507Z,12.28
2022-09-16T20:20:20.538Z,12.27
2022-09-16T20:32:20.750Z,12.25
2022-09-16T20:44:20.555Z,12.24
2022-09-16T20:56:21.934Z,12.22
2022-09-16T21:08:20.595Z,12.20
2022-09-16T21:20:20.492Z,12.19
2022-09-16T21:32:20.545Z,12.16
2022-09-16T21:44:20.544Z,12.15
2022-09-16T21:56:20.543Z,12.14
2022-09-16T22:08:20.552Z,12.13
2022-09-16T22:20:20.574Z,12.11
2022-09-16T22:32:20.612Z,12.09
2022-09-16T22:44:20.526Z,12.08
2022-09-16T22:56:20.534Z,12.07
2022-09-16T23:08:21.074Z,12.05
2022-09-16T23:20:20.739Z,12.04
2022-09-16T23:32:20.532Z,12.02
2022-09-16T23:44:20.516Z,12.00
2022-09-16T23:56:20.536Z,12.00
